Impacts METAR Board
IDs:

KIAD - Washington/Dulles In, VA, US

Updated at: 1000 UTC 24 Jan 2019
Potential Impact None Slight Moderate High
Time 23/22Z 23/23Z 24/00Z 24/01Z 24/02Z 24/03Z 24/04Z 24/05Z 24/06Z 24/07Z 24/08Z 24/09Z 24/10Z
Temp46 44 43 43 43 44 44 45 42 42 42 43 56
Dewpt35 35 36 36 37 37 38 41 42 42 42 43 56
Altim30.03 30.01 29.99 29.96 29.94 29.91 29.89 29.84 29.80 29.78 29.72 29.64 29.58
VIS10 10 10 10 10 10 10 8 5 3 2 4 10
CIG50 50 50 50 26 19 18 11 8 3 3 3 10
CoverOVCOVCBKNOVCOVCOVCOVCOVCOVCOVCOVCOVCOVC
FltCatVFRVFRVFRVFRMVFRMVFRMVFRMVFRIFRLIFRLIFRLIFRMVFR
WX---------------DZ-RA BR-RA BR-RA BR-RA BR-RA
WDir20019019018018018019016000120150160
WSpd7 9 10 7 5 5 4 5 3 0 5 5 13
WGst-- -- -- -- -- -- -- -- -- -- -- -- 21
Raw hourly METARs
KIAD 232152Z 20007KT 10SM SCT032 OVC050 08/02 A3003 RMK AO2 SLP170 T00780017
KIAD 232252Z 19009KT 10SM FEW031 BKN050 OVC100 07/02 A3001 RMK AO2 SLP163 T00670017
KIAD 232352Z 19010KT 10SM BKN050 BKN150 06/02 A2999 RMK AO2 SLP158 T00610022 10083 20061 56021
KIAD 240052Z 18007KT 10SM SCT033 OVC050 06/02 A2996 RMK AO2 SLP148 T00610022
KIAD 240152Z 18005KT 10SM OVC026 06/03 A2994 RMK AO2 SLP140 T00610028
KIAD 240252Z 18005KT 10SM OVC019 07/03 A2991 RMK AO2 SLP128 T00670028 58029
KIAD 240352Z 19004KT 10SM OVC018 07/03 A2989 RMK AO2 SLP121 T00670033
KIAD 240452Z 16005KT 8SM -DZ BKN011 OVC015 07/05 A2984 RMK AO2 SLP105 DZB46 P0000 T00720050 400831017
KIAD 240552Z VRB03KT 5SM -RA BR BKN008 OVC014 06/06 A2980 RMK AO2 DZE0455RAB0455 SLP090 P0004 60004 T00560056 10072 20056 58037
KIAD 240652Z 00000KT 3SM R01R/4500VP6000FT -RA BR OVC003 06/06 A2978 RMK AO2 SLP084 VIS SE 2 P0006 T00560056
KIAD 240752Z 12005KT 2SM -RA BR BKN003 OVC005 06/06 A2972 RMK AO2 SLP064 PRESFR P0006 T00560056
KIAD 240852Z 15005KT 4SM -RA BR BKN003 OVC010 06/06 A2964 RMK AO2 PRESFR SLP038 P0004 60016 T00610061 58051
KIAD 240952Z 16013G21KT 10SM -RA SCT003 BKN010 OVC025 13/13 A2958 RMK AO2 PRESFR SLP017 PRESFR P0003 T01330133



Page loaded:  10:40 UTC  |   02:40 AM Pacific  |   03:40 AM Mountain  |   04:40 AM Central  |   05:40 AM Eastern

 

ADVISORIES

FORECASTS

FORECASTS

OBSERVATIONS

USER TOOLS

ABOUT US